sensor_id;sensor_type;location;lat;lon;timestamp;P1;durP1;ratioP1;P2;durP2;ratioP2
17510;SDS011;8873;48.818;9.422;2022-12-07T00:02:19;12.20;;;7.32;;
17510;SDS011;8873;48.818;9.422;2022-12-07T00:04:48;13.30;;;7.80;;
17510;SDS011;8873;48.818;9.422;2022-12-07T00:07:16;16.33;;;8.25;;
17510;SDS011;8873;48.818;9.422;2022-12-07T00:09:50;17.63;;;8.52;;
17510;SDS011;8873;48.818;9.422;2022-12-07T00:12:18;13.35;;;7.90;;
17510;SDS011;8873;48.818;9.422;2022-12-07T00:14:47;15.57;;;8.55;;
17510;SDS011;8873;48.818;9.422;2022-12-07T00:17:15;12.95;;;7.28;;
17510;SDS011;8873;48.818;9.422;2022-12-07T00:19:44;13.80;;;7.55;;
17510;SDS011;8873;48.818;9.422;2022-12-07T00:22:12;17.67;;;8.32;;
17510;SDS011;8873;48.818;9.422;2022-12-07T00:24:41;15.83;;;7.80;;
17510;SDS011;8873;48.818;9.422;2022-12-07T00:27:08;13.68;;;7.95;;
17510;SDS011;8873;48.818;9.422;2022-12-07T00:29:37;15.20;;;8.30;;
17510;SDS011;8873;48.818;9.422;2022-12-07T00:32:06;15.57;;;8.27;;
17510;SDS011;8873;48.818;9.422;2022-12-07T00:34:36;17.52;;;7.90;;
17510;SDS011;8873;48.818;9.422;2022-12-07T00:37:05;14.98;;;7.78;;
17510;SDS011;8873;48.818;9.422;2022-12-07T00:39:34;16.48;;;8.70;;
17510;SDS011;8873;48.818;9.422;2022-12-07T00:42:02;16.85;;;8.70;;
17510;SDS011;8873;48.818;9.422;2022-12-07T00:44:32;14.18;;;7.90;;
17510;SDS011;8873;48.818;9.422;2022-12-07T00:47:00;14.30;;;8.10;;
17510;SDS011;8873;48.818;9.422;2022-12-07T00:49:28;17.40;;;8.33;;
17510;SDS011;8873;48.818;9.422;2022-12-07T00:51:56;14.80;;;8.23;;
17510;SDS011;8873;48.818;9.422;2022-12-07T00:54:25;15.10;;;8.03;;
17510;SDS011;8873;48.818;9.422;2022-12-07T00:56:54;17.13;;;8.50;;
17510;SDS011;8873;48.818;9.422;2022-12-07T00:59:24;15.93;;;8.67;;
17510;SDS011;8873;48.818;9.422;2022-12-07T01:01:55;15.30;;;7.70;;
17510;SDS011;8873;48.818;9.422;2022-12-07T01:04:25;14.43;;;7.90;;
17510;SDS011;8873;48.818;9.422;2022-12-07T01:06:56;15.23;;;8.80;;
17510;SDS011;8873;48.818;9.422;2022-12-07T01:09:29;18.13;;;9.23;;
17510;SDS011;8873;48.818;9.422;2022-12-07T01:11:57;14.30;;;8.13;;
17510;SDS011;8873;48.818;9.422;2022-12-07T01:14:28;18.77;;;8.90;;
17510;SDS011;8873;48.818;9.422;2022-12-07T01:16:56;16.23;;;8.52;;
17510;SDS011;8873;48.818;9.422;2022-12-07T01:19:25;14.80;;;8.05;;
17510;SDS011;8873;48.818;9.422;2022-12-07T01:21:53;18.92;;;8.98;;
17510;SDS011;8873;48.818;9.422;2022-12-07T01:24:21;14.05;;;8.20;;
17510;SDS011;8873;48.818;9.422;2022-12-07T01:26:56;17.65;;;8.43;;
17510;SDS011;8873;48.818;9.422;2022-12-07T01:29:28;17.30;;;8.73;;
17510;SDS011;8873;48.818;9.422;2022-12-07T01:31:56;17.42;;;8.85;;
17510;SDS011;8873;48.818;9.422;2022-12-07T01:34:26;17.60;;;8.77;;
17510;SDS011;8873;48.818;9.422;2022-12-07T01:36:54;15.67;;;8.47;;
17510;SDS011;8873;48.818;9.422;2022-12-07T01:39:24;17.15;;;8.95;;
17510;SDS011;8873;48.818;9.422;2022-12-07T01:41:59;15.77;;;8.40;;
17510;SDS011;8873;48.818;9.422;2022-12-07T01:44:28;15.93;;;8.47;;
17510;SDS011;8873;48.818;9.422;2022-12-07T01:46:59;15.40;;;8.70;;
17510;SDS011;8873;48.818;9.422;2022-12-07T01:49:28;17.63;;;9.13;;
17510;SDS011;8873;48.818;9.422;2022-12-07T01:52:00;20.63;;;9.13;;
17510;SDS011;8873;48.818;9.422;2022-12-07T01:54:30;17.53;;;8.83;;
17510;SDS011;8873;48.818;9.422;2022-12-07T01:57:02;17.90;;;8.43;;
17510;SDS011;8873;48.818;9.422;2022-12-07T01:59:31;15.32;;;8.10;;
17510;SDS011;8873;48.818;9.422;2022-12-07T02:01:59;16.27;;;8.50;;
17510;SDS011;8873;48.818;9.422;2022-12-07T02:04:32;15.97;;;8.23;;
17510;SDS011;8873;48.818;9.422;2022-12-07T02:07:00;14.80;;;8.33;;
17510;SDS011;8873;48.818;9.422;2022-12-07T02:09:28;19.00;;;8.23;;
17510;SDS011;8873;48.818;9.422;2022-12-07T02:11:57;15.67;;;8.13;;
17510;SDS011;8873;48.818;9.422;2022-12-07T02:14:26;14.57;;;8.00;;
17510;SDS011;8873;48.818;9.422;2022-12-07T02:16:59;15.57;;;7.87;;
17510;SDS011;8873;48.818;9.422;2022-12-07T02:22:18;14.93;;;8.03;;
17510;SDS011;8873;48.818;9.422;2022-12-07T02:24:53;16.47;;;8.40;;
17510;SDS011;8873;48.818;9.422;2022-12-07T02:27:33;15.80;;;7.43;;
17510;SDS011;8873;48.818;9.422;2022-12-07T02:30:05;14.85;;;8.15;;
17510;SDS011;8873;48.818;9.422;2022-12-07T02:32:38;17.60;;;8.67;;
17510;SDS011;8873;48.818;9.422;2022-12-07T02:35:09;13.27;;;7.57;;
17510;SDS011;8873;48.818;9.422;2022-12-07T02:37:41;17.87;;;8.63;;
17510;SDS011;8873;48.818;9.422;2022-12-07T02:40:11;13.75;;;7.88;;
17510;SDS011;8873;48.818;9.422;2022-12-07T02:42:41;14.30;;;7.77;;
17510;SDS011;8873;48.818;9.422;2022-12-07T02:45:13;21.13;;;9.07;;
17510;SDS011;8873;48.818;9.422;2022-12-07T02:47:42;19.37;;;8.70;;
17510;SDS011;8873;48.818;9.422;2022-12-07T02:50:11;15.13;;;8.65;;
17510;SDS011;8873;48.818;9.422;2022-12-07T02:52:39;18.17;;;9.13;;
17510;SDS011;8873;48.818;9.422;2022-12-07T02:55:08;18.70;;;8.97;;
17510;SDS011;8873;48.818;9.422;2022-12-07T02:57:41;19.10;;;9.23;;
17510;SDS011;8873;48.818;9.422;2022-12-07T03:00:15;16.80;;;7.87;;
17510;SDS011;8873;48.818;9.422;2022-12-07T03:02:46;17.73;;;8.05;;
17510;SDS011;8873;48.818;9.422;2022-12-07T03:05:20;20.17;;;8.90;;
17510;SDS011;8873;48.818;9.422;2022-12-07T03:07:54;16.73;;;8.03;;
17510;SDS011;8873;48.818;9.422;2022-12-07T03:10:28;20.10;;;8.73;;
17510;SDS011;8873;48.818;9.422;2022-12-07T03:13:02;15.48;;;8.10;;
17510;SDS011;8873;48.818;9.422;2022-12-07T03:15:35;15.75;;;8.60;;
17510;SDS011;8873;48.818;9.422;2022-12-07T03:18:06;16.07;;;8.40;;
17510;SDS011;8873;48.818;9.422;2022-12-07T03:20:36;17.60;;;8.87;;
17510;SDS011;8873;48.818;9.422;2022-12-07T03:23:15;16.38;;;8.23;;
17510;SDS011;8873;48.818;9.422;2022-12-07T03:25:45;17.77;;;8.63;;
17510;SDS011;8873;48.818;9.422;2022-12-07T03:28:16;17.05;;;8.65;;
17510;SDS011;8873;48.818;9.422;2022-12-07T03:30:49;15.33;;;8.30;;
17510;SDS011;8873;48.818;9.422;2022-12-07T03:33:19;21.27;;;8.37;;
17510;SDS011;8873;48.818;9.422;2022-12-07T03:35:52;15.55;;;9.18;;
17510;SDS011;8873;48.818;9.422;2022-12-07T03:38:24;19.20;;;8.93;;
17510;SDS011;8873;48.818;9.422;2022-12-07T03:40:57;20.73;;;9.82;;
17510;SDS011;8873;48.818;9.422;2022-12-07T03:43:28;18.47;;;9.53;;
17510;SDS011;8873;48.818;9.422;2022-12-07T03:46:00;21.27;;;9.75;;
17510;SDS011;8873;48.818;9.422;2022-12-07T03:48:32;23.52;;;9.38;;
17510;SDS011;8873;48.818;9.422;2022-12-07T03:51:04;17.38;;;8.80;;
17510;SDS011;8873;48.818;9.422;2022-12-07T03:53:36;15.80;;;8.75;;
17510;SDS011;8873;48.818;9.422;2022-12-07T03:56:05;18.47;;;8.90;;
17510;SDS011;8873;48.818;9.422;2022-12-07T03:58:34;18.60;;;9.07;;
17510;SDS011;8873;48.818;9.422;2022-12-07T04:01:07;19.20;;;9.17;;
17510;SDS011;8873;48.818;9.422;2022-12-07T04:03:36;16.83;;;9.13;;
17510;SDS011;8873;48.818;9.422;2022-12-07T04:06:04;19.15;;;9.52;;
17510;SDS011;8873;48.818;9.422;2022-12-07T04:08:32;18.53;;;9.50;;
17510;SDS011;8873;48.818;9.422;2022-12-07T04:11:02;27.97;;;11.20;;
17510;SDS011;8873;48.818;9.422;2022-12-07T04:13:30;25.52;;;11.57;;
17510;SDS011;8873;48.818;9.422;2022-12-07T04:16:21;20.83;;;9.37;;
17510;SDS011;8873;48.818;9.422;2022-12-07T04:18:51;20.50;;;9.73;;
17510;SDS011;8873;48.818;9.422;2022-12-07T04:21:19;20.13;;;9.70;;
17510;SDS011;8873;48.818;9.422;2022-12-07T04:23:48;19.80;;;9.47;;
17510;SDS011;8873;48.818;9.422;2022-12-07T04:26:16;18.30;;;8.80;;
17510;SDS011;8873;48.818;9.422;2022-12-07T04:28:47;17.37;;;8.73;;
17510;SDS011;8873;48.818;9.422;2022-12-07T04:31:16;18.93;;;8.90;;
17510;SDS011;8873;48.818;9.422;2022-12-07T04:33:45;20.97;;;9.07;;
17510;SDS011;8873;48.818;9.422;2022-12-07T04:36:13;23.53;;;9.53;;
17510;SDS011;8873;48.818;9.422;2022-12-07T04:38:41;22.40;;;9.73;;
17510;SDS011;8873;48.818;9.422;2022-12-07T04:41:09;25.57;;;10.03;;
17510;SDS011;8873;48.818;9.422;2022-12-07T04:43:39;21.70;;;9.23;;
17510;SDS011;8873;48.818;9.422;2022-12-07T04:46:08;22.83;;;9.97;;
17510;SDS011;8873;48.818;9.422;2022-12-07T04:48:38;24.07;;;10.73;;
17510;SDS011;8873;48.818;9.422;2022-12-07T04:51:09;22.63;;;10.10;;
17510;SDS011;8873;48.818;9.422;2022-12-07T04:53:37;26.20;;;10.97;;
17510;SDS011;8873;48.818;9.422;2022-12-07T04:56:05;21.13;;;10.37;;
17510;SDS011;8873;48.818;9.422;2022-12-07T04:58:34;26.67;;;10.50;;
17510;SDS011;8873;48.818;9.422;2022-12-07T05:01:08;23.07;;;10.57;;
17510;SDS011;8873;48.818;9.422;2022-12-07T05:03:44;28.93;;;11.30;;
17510;SDS011;8873;48.818;9.422;2022-12-07T05:06:14;27.03;;;10.77;;
17510;SDS011;8873;48.818;9.422;2022-12-07T05:08:42;26.80;;;11.00;;
17510;SDS011;8873;48.818;9.422;2022-12-07T05:11:11;28.57;;;11.47;;
17510;SDS011;8873;48.818;9.422;2022-12-07T05:14:01;23.80;;;10.50;;
17510;SDS011;8873;48.818;9.422;2022-12-07T05:16:29;25.83;;;11.40;;
17510;SDS011;8873;48.818;9.422;2022-12-07T05:18:58;20.47;;;9.43;;
17510;SDS011;8873;48.818;9.422;2022-12-07T05:21:29;23.50;;;9.47;;
17510;SDS011;8873;48.818;9.422;2022-12-07T05:23:57;21.17;;;9.23;;
17510;SDS011;8873;48.818;9.422;2022-12-07T05:26:25;20.57;;;9.50;;
17510;SDS011;8873;48.818;9.422;2022-12-07T05:28:55;24.30;;;10.13;;
17510;SDS011;8873;48.818;9.422;2022-12-07T05:31:25;22.43;;;10.40;;
17510;SDS011;8873;48.818;9.422;2022-12-07T05:33:54;19.90;;;9.13;;
17510;SDS011;8873;48.818;9.422;2022-12-07T05:36:22;22.20;;;9.40;;
17510;SDS011;8873;48.818;9.422;2022-12-07T05:38:53;24.63;;;9.57;;
17510;SDS011;8873;48.818;9.422;2022-12-07T05:41:22;21.87;;;9.67;;
17510;SDS011;8873;48.818;9.422;2022-12-07T05:44:07;20.77;;;9.13;;
17510;SDS011;8873;48.818;9.422;2022-12-07T05:46:37;20.37;;;9.03;;
17510;SDS011;8873;48.818;9.422;2022-12-07T05:49:05;19.80;;;8.83;;
17510;SDS011;8873;48.818;9.422;2022-12-07T05:51:37;19.87;;;8.93;;
17510;SDS011;8873;48.818;9.422;2022-12-07T05:54:12;21.87;;;10.23;;
17510;SDS011;8873;48.818;9.422;2022-12-07T05:56:40;24.47;;;10.60;;
17510;SDS011;8873;48.818;9.422;2022-12-07T06:02:39;18.40;;;9.43;;
17510;SDS011;8873;48.818;9.422;2022-12-07T06:08:41;23.23;;;9.73;;
17510;SDS011;8873;48.818;9.422;2022-12-07T06:32:28;22.87;;;10.03;;
17510;SDS011;8873;48.818;9.422;2022-12-07T06:34:55;20.40;;;9.23;;
17510;SDS011;8873;48.818;9.422;2022-12-07T06:37:26;20.67;;;9.17;;
17510;SDS011;8873;48.818;9.422;2022-12-07T06:39:54;17.63;;;9.17;;
17510;SDS011;8873;48.818;9.422;2022-12-07T06:42:24;20.13;;;9.40;;
17510;SDS011;8873;48.818;9.422;2022-12-07T06:44:51;19.97;;;9.07;;
17510;SDS011;8873;48.818;9.422;2022-12-07T06:47:19;21.60;;;9.20;;
17510;SDS011;8873;48.818;9.422;2022-12-07T06:50:09;21.93;;;9.87;;
17510;SDS011;8873;48.818;9.422;2022-12-07T06:52:36;17.77;;;9.30;;
17510;SDS011;8873;48.818;9.422;2022-12-07T06:55:04;23.47;;;9.63;;
17510;SDS011;8873;48.818;9.422;2022-12-07T06:57:32;16.73;;;6.90;;
17510;SDS011;8873;48.818;9.422;2022-12-07T06:59:59;15.00;;;7.40;;
17510;SDS011;8873;48.818;9.422;2022-12-07T07:02:28;18.70;;;8.13;;
17510;SDS011;8873;48.818;9.422;2022-12-07T07:04:55;15.27;;;8.10;;
17510;SDS011;8873;48.818;9.422;2022-12-07T07:07:25;26.23;;;12.70;;
17510;SDS011;8873;48.818;9.422;2022-12-07T07:09:52;27.30;;;10.50;;
17510;SDS011;8873;48.818;9.422;2022-12-07T07:12:20;23.33;;;10.13;;
17510;SDS011;8873;48.818;9.422;2022-12-07T07:14:48;22.37;;;10.63;;
17510;SDS011;8873;48.818;9.422;2022-12-07T07:17:15;27.13;;;11.03;;
17510;SDS011;8873;48.818;9.422;2022-12-07T07:19:43;23.93;;;11.10;;
17510;SDS011;8873;48.818;9.422;2022-12-07T07:22:10;27.80;;;11.57;;
17510;SDS011;8873;48.818;9.422;2022-12-07T07:24:39;30.20;;;11.83;;
17510;SDS011;8873;48.818;9.422;2022-12-07T07:27:07;25.23;;;10.87;;
17510;SDS011;8873;48.818;9.422;2022-12-07T07:29:34;25.83;;;11.07;;
17510;SDS011;8873;48.818;9.422;2022-12-07T07:32:02;22.37;;;11.17;;
17510;SDS011;8873;48.818;9.422;2022-12-07T07:34:32;22.70;;;10.10;;
17510;SDS011;8873;48.818;9.422;2022-12-07T07:36:59;20.73;;;8.40;;
17510;SDS011;8873;48.818;9.422;2022-12-07T07:39:27;20.10;;;9.47;;
17510;SDS011;8873;48.818;9.422;2022-12-07T07:41:56;18.97;;;9.27;;
17510;SDS011;8873;48.818;9.422;2022-12-07T07:44:26;19.73;;;8.67;;
17510;SDS011;8873;48.818;9.422;2022-12-07T07:47:00;20.23;;;8.87;;
17510;SDS011;8873;48.818;9.422;2022-12-07T07:49:28;18.40;;;8.57;;
17510;SDS011;8873;48.818;9.422;2022-12-07T07:51:55;16.50;;;8.87;;
17510;SDS011;8873;48.818;9.422;2022-12-07T07:54:23;27.27;;;10.80;;
17510;SDS011;8873;48.818;9.422;2022-12-07T07:56:51;20.90;;;10.57;;
17510;SDS011;8873;48.818;9.422;2022-12-07T07:59:20;24.80;;;10.40;;
17510;SDS011;8873;48.818;9.422;2022-12-07T08:01:48;19.10;;;8.87;;
17510;SDS011;8873;48.818;9.422;2022-12-07T08:04:18;16.67;;;8.03;;
17510;SDS011;8873;48.818;9.422;2022-12-07T08:06:45;19.97;;;9.63;;
17510;SDS011;8873;48.818;9.422;2022-12-07T08:09:13;21.27;;;9.83;;
17510;SDS011;8873;48.818;9.422;2022-12-07T08:11:41;28.03;;;10.70;;
17510;SDS011;8873;48.818;9.422;2022-12-07T08:14:09;22.33;;;10.77;;
17510;SDS011;8873;48.818;9.422;2022-12-07T08:16:38;22.13;;;11.57;;
17510;SDS011;8873;48.818;9.422;2022-12-07T08:19:06;27.63;;;12.30;;
17510;SDS011;8873;48.818;9.422;2022-12-07T08:21:34;27.30;;;12.60;;
17510;SDS011;8873;48.818;9.422;2022-12-07T08:24:01;28.47;;;13.03;;
17510;SDS011;8873;48.818;9.422;2022-12-07T08:26:29;23.00;;;11.57;;
17510;SDS011;8873;48.818;9.422;2022-12-07T08:28:56;24.55;;;11.30;;
17510;SDS011;8873;48.818;9.422;2022-12-07T08:31:24;23.93;;;11.53;;
17510;SDS011;8873;48.818;9.422;2022-12-07T08:33:53;27.70;;;11.43;;
17510;SDS011;8873;48.818;9.422;2022-12-07T08:36:20;25.63;;;11.77;;
17510;SDS011;8873;48.818;9.422;2022-12-07T08:38:49;26.30;;;11.30;;
17510;SDS011;8873;48.818;9.422;2022-12-07T08:41:36;24.73;;;10.50;;
17510;SDS011;8873;48.818;9.422;2022-12-07T08:44:04;28.87;;;11.67;;
17510;SDS011;8873;48.818;9.422;2022-12-07T08:46:32;24.80;;;11.13;;
17510;SDS011;8873;48.818;9.422;2022-12-07T08:49:05;24.77;;;11.47;;
17510;SDS011;8873;48.818;9.422;2022-12-07T08:51:34;27.50;;;11.83;;
17510;SDS011;8873;48.818;9.422;2022-12-07T08:54:04;19.83;;;10.27;;
17510;SDS011;8873;48.818;9.422;2022-12-07T08:56:32;20.88;;;10.73;;
17510;SDS011;8873;48.818;9.422;2022-12-07T08:59:00;25.13;;;10.40;;
17510;SDS011;8873;48.818;9.422;2022-12-07T09:01:28;24.60;;;10.10;;
17510;SDS011;8873;48.818;9.422;2022-12-07T09:03:55;17.85;;;8.88;;
17510;SDS011;8873;48.818;9.422;2022-12-07T09:06:24;17.13;;;8.25;;
17510;SDS011;8873;48.818;9.422;2022-12-07T09:08:54;14.33;;;7.13;;
17510;SDS011;8873;48.818;9.422;2022-12-07T09:11:22;32.03;;;13.43;;
17510;SDS011;8873;48.818;9.422;2022-12-07T09:13:54;25.17;;;10.18;;
17510;SDS011;8873;48.818;9.422;2022-12-07T09:16:22;20.10;;;8.70;;
17510;SDS011;8873;48.818;9.422;2022-12-07T09:18:49;15.20;;;7.43;;
17510;SDS011;8873;48.818;9.422;2022-12-07T09:21:17;18.17;;;7.30;;
17510;SDS011;8873;48.818;9.422;2022-12-07T09:23:46;14.88;;;7.47;;
17510;SDS011;8873;48.818;9.422;2022-12-07T09:26:14;13.32;;;7.47;;
17510;SDS011;8873;48.818;9.422;2022-12-07T09:28:41;17.07;;;7.63;;
17510;SDS011;8873;48.818;9.422;2022-12-07T09:31:09;14.30;;;7.03;;
17510;SDS011;8873;48.818;9.422;2022-12-07T09:33:53;15.48;;;7.85;;
17510;SDS011;8873;48.818;9.422;2022-12-07T09:36:21;17.27;;;8.20;;
17510;SDS011;8873;48.818;9.422;2022-12-07T09:38:50;15.25;;;7.28;;
17510;SDS011;8873;48.818;9.422;2022-12-07T09:41:17;15.95;;;6.85;;
17510;SDS011;8873;48.818;9.422;2022-12-07T09:43:45;26.40;;;7.72;;
17510;SDS011;8873;48.818;9.422;2022-12-07T09:46:14;13.15;;;7.15;;
17510;SDS011;8873;48.818;9.422;2022-12-07T09:48:43;13.68;;;7.57;;
17510;SDS011;8873;48.818;9.422;2022-12-07T09:51:13;15.68;;;8.30;;
17510;SDS011;8873;48.818;9.422;2022-12-07T09:53:49;16.05;;;7.72;;
17510;SDS011;8873;48.818;9.422;2022-12-07T09:56:17;21.17;;;8.95;;
17510;SDS011;8873;48.818;9.422;2022-12-07T09:58:46;18.45;;;7.85;;
17510;SDS011;8873;48.818;9.422;2022-12-07T10:01:14;15.50;;;7.47;;
17510;SDS011;8873;48.818;9.422;2022-12-07T10:03:44;13.65;;;6.70;;
17510;SDS011;8873;48.818;9.422;2022-12-07T10:06:12;15.23;;;8.15;;
17510;SDS011;8873;48.818;9.422;2022-12-07T10:08:40;17.27;;;7.20;;
17510;SDS011;8873;48.818;9.422;2022-12-07T10:11:11;12.65;;;6.22;;
17510;SDS011;8873;48.818;9.422;2022-12-07T10:13:41;11.15;;;6.30;;
17510;SDS011;8873;48.818;9.422;2022-12-07T10:16:26;12.25;;;6.55;;
17510;SDS011;8873;48.818;9.422;2022-12-07T10:18:56;11.68;;;5.95;;
17510;SDS011;8873;48.818;9.422;2022-12-07T10:21:27;17.98;;;6.28;;
17510;SDS011;8873;48.818;9.422;2022-12-07T10:23:59;9.73;;;5.50;;
17510;SDS011;8873;48.818;9.422;2022-12-07T10:26:30;9.52;;;5.70;;
17510;SDS011;8873;48.818;9.422;2022-12-07T10:29:02;10.20;;;5.78;;
17510;SDS011;8873;48.818;9.422;2022-12-07T10:31:30;10.20;;;5.75;;
17510;SDS011;8873;48.818;9.422;2022-12-07T10:33:58;13.25;;;5.60;;
17510;SDS011;8873;48.818;9.422;2022-12-07T10:36:27;12.75;;;7.00;;
17510;SDS011;8873;48.818;9.422;2022-12-07T10:39:01;9.98;;;5.50;;
17510;SDS011;8873;48.818;9.422;2022-12-07T10:41:31;13.48;;;5.80;;
17510;SDS011;8873;48.818;9.422;2022-12-07T10:43:59;12.20;;;5.80;;
17510;SDS011;8873;48.818;9.422;2022-12-07T10:46:31;14.52;;;6.55;;
17510;SDS011;8873;48.818;9.422;2022-12-07T10:49:03;17.27;;;6.13;;
17510;SDS011;8873;48.818;9.422;2022-12-07T10:51:39;10.57;;;6.03;;
17510;SDS011;8873;48.818;9.422;2022-12-07T10:54:12;10.15;;;5.07;;
17510;SDS011;8873;48.818;9.422;2022-12-07T10:56:57;11.73;;;5.93;;
17510;SDS011;8873;48.818;9.422;2022-12-07T10:59:35;15.70;;;6.70;;
17510;SDS011;8873;48.818;9.422;2022-12-07T11:02:09;18.45;;;6.82;;
17510;SDS011;8873;48.818;9.422;2022-12-07T11:04:50;10.38;;;5.72;;
17510;SDS011;8873;48.818;9.422;2022-12-07T11:07:23;10.90;;;5.57;;
17510;SDS011;8873;48.818;9.422;2022-12-07T11:09:58;10.80;;;5.57;;
17510;SDS011;8873;48.818;9.422;2022-12-07T11:12:40;11.00;;;5.32;;
17510;SDS011;8873;48.818;9.422;2022-12-07T11:15:11;13.25;;;5.82;;
17510;SDS011;8873;48.818;9.422;2022-12-07T11:17:45;11.02;;;5.43;;
17510;SDS011;8873;48.818;9.422;2022-12-07T11:20:20;18.02;;;5.68;;
17510;SDS011;8873;48.818;9.422;2022-12-07T11:22:55;9.50;;;5.57;;
17510;SDS011;8873;48.818;9.422;2022-12-07T11:25:30;12.68;;;6.15;;
17510;SDS011;8873;48.818;9.422;2022-12-07T11:28:06;17.33;;;7.28;;
17510;SDS011;8873;48.818;9.422;2022-12-07T11:30:41;22.38;;;8.00;;
17510;SDS011;8873;48.818;9.422;2022-12-07T11:33:12;11.95;;;5.75;;
17510;SDS011;8873;48.818;9.422;2022-12-07T11:35:46;14.02;;;5.80;;
17510;SDS011;8873;48.818;9.422;2022-12-07T11:38:15;13.40;;;6.10;;
17510;SDS011;8873;48.818;9.422;2022-12-07T11:40:50;9.77;;;4.68;;
17510;SDS011;8873;48.818;9.422;2022-12-07T11:45:58;13.45;;;5.88;;
17510;SDS011;8873;48.818;9.422;2022-12-07T11:48:29;16.52;;;5.47;;
17510;SDS011;8873;48.818;9.422;2022-12-07T11:50:58;11.90;;;6.38;;
17510;SDS011;8873;48.818;9.422;2022-12-07T11:53:27;16.00;;;6.78;;
17510;SDS011;8873;48.818;9.422;2022-12-07T11:55:57;13.75;;;6.60;;
17510;SDS011;8873;48.818;9.422;2022-12-07T11:58:35;14.75;;;6.38;;
17510;SDS011;8873;48.818;9.422;2022-12-07T12:01:11;15.82;;;6.32;;
17510;SDS011;8873;48.818;9.422;2022-12-07T12:03:42;17.90;;;7.65;;
17510;SDS011;8873;48.818;9.422;2022-12-07T12:06:18;11.57;;;5.32;;
17510;SDS011;8873;48.818;9.422;2022-12-07T12:08:46;8.30;;;4.85;;
17510;SDS011;8873;48.818;9.422;2022-12-07T12:11:43;16.08;;;5.15;;
17510;SDS011;8873;48.818;9.422;2022-12-07T12:14:27;9.68;;;4.50;;
17510;SDS011;8873;48.818;9.422;2022-12-07T12:22:29;7.90;;;4.85;;
17510;SDS011;8873;48.818;9.422;2022-12-07T12:24:59;9.98;;;5.88;;
17510;SDS011;8873;48.818;9.422;2022-12-07T12:27:29;9.30;;;5.40;;
17510;SDS011;8873;48.818;9.422;2022-12-07T12:29:59;12.00;;;5.70;;
17510;SDS011;8873;48.818;9.422;2022-12-07T12:32:34;11.57;;;5.88;;
17510;SDS011;8873;48.818;9.422;2022-12-07T12:35:22;14.13;;;6.15;;
17510;SDS011;8873;48.818;9.422;2022-12-07T12:38:20;13.55;;;6.20;;
17510;SDS011;8873;48.818;9.422;2022-12-07T12:41:01;14.17;;;7.40;;
17510;SDS011;8873;48.818;9.422;2022-12-07T12:46:38;14.32;;;6.88;;
17510;SDS011;8873;48.818;9.422;2022-12-07T12:49:38;12.77;;;7.03;;
17510;SDS011;8873;48.818;9.422;2022-12-07T12:55:00;17.30;;;6.78;;
17510;SDS011;8873;48.818;9.422;2022-12-07T12:57:30;12.32;;;6.82;;
17510;SDS011;8873;48.818;9.422;2022-12-07T12:59:58;24.52;;;11.23;;
17510;SDS011;8873;48.818;9.422;2022-12-07T13:02:26;12.82;;;7.22;;
17510;SDS011;8873;48.818;9.422;2022-12-07T13:04:55;13.52;;;7.32;;
17510;SDS011;8873;48.818;9.422;2022-12-07T13:10:20;14.07;;;7.57;;
17510;SDS011;8873;48.818;9.422;2022-12-07T13:12:55;14.95;;;7.63;;
17510;SDS011;8873;48.818;9.422;2022-12-07T13:15:32;13.25;;;6.95;;
17510;SDS011;8873;48.818;9.422;2022-12-07T13:18:04;13.98;;;7.25;;
17510;SDS011;8873;48.818;9.422;2022-12-07T13:23:29;14.77;;;6.90;;
17510;SDS011;8873;48.818;9.422;2022-12-07T13:28:45;14.40;;;6.25;;
17510;SDS011;8873;48.818;9.422;2022-12-07T13:31:19;15.95;;;7.72;;
17510;SDS011;8873;48.818;9.422;2022-12-07T13:33:47;14.23;;;6.80;;
17510;SDS011;8873;48.818;9.422;2022-12-07T13:36:17;14.63;;;6.60;;
17510;SDS011;8873;48.818;9.422;2022-12-07T13:38:53;13.90;;;6.93;;
17510;SDS011;8873;48.818;9.422;2022-12-07T13:41:21;14.00;;;6.93;;
17510;SDS011;8873;48.818;9.422;2022-12-07T13:43:59;14.57;;;7.40;;
17510;SDS011;8873;48.818;9.422;2022-12-07T13:46:30;14.95;;;7.43;;
17510;SDS011;8873;48.818;9.422;2022-12-07T13:49:00;17.70;;;7.72;;
17510;SDS011;8873;48.818;9.422;2022-12-07T13:51:28;17.65;;;7.38;;
17510;SDS011;8873;48.818;9.422;2022-12-07T13:53:58;14.80;;;7.22;;
17510;SDS011;8873;48.818;9.422;2022-12-07T13:56:32;14.15;;;7.25;;
17510;SDS011;8873;48.818;9.422;2022-12-07T13:59:02;14.18;;;7.63;;
17510;SDS011;8873;48.818;9.422;2022-12-07T14:01:31;13.32;;;6.88;;
17510;SDS011;8873;48.818;9.422;2022-12-07T14:06:46;14.88;;;7.13;;
17510;SDS011;8873;48.818;9.422;2022-12-07T14:09:17;13.20;;;6.60;;
17510;SDS011;8873;48.818;9.422;2022-12-07T14:11:45;15.90;;;7.85;;
17510;SDS011;8873;48.818;9.422;2022-12-07T14:14:15;13.32;;;7.45;;
17510;SDS011;8873;48.818;9.422;2022-12-07T14:16:43;14.43;;;7.43;;
17510;SDS011;8873;48.818;9.422;2022-12-07T14:22:05;16.55;;;7.93;;
17510;SDS011;8873;48.818;9.422;2022-12-07T14:24:40;16.33;;;8.32;;
17510;SDS011;8873;48.818;9.422;2022-12-07T14:27:15;14.57;;;7.70;;
17510;SDS011;8873;48.818;9.422;2022-12-07T14:29:45;16.40;;;8.27;;
17510;SDS011;8873;48.818;9.422;2022-12-07T14:32:20;19.75;;;8.70;;
17510;SDS011;8873;48.818;9.422;2022-12-07T14:37:34;20.13;;;8.52;;
17510;SDS011;8873;48.818;9.422;2022-12-07T14:40:02;20.67;;;8.48;;
17510;SDS011;8873;48.818;9.422;2022-12-07T14:42:30;18.95;;;8.82;;
17510;SDS011;8873;48.818;9.422;2022-12-07T14:45:00;25.17;;;11.85;;
17510;SDS011;8873;48.818;9.422;2022-12-07T14:47:28;22.55;;;9.10;;
17510;SDS011;8873;48.818;9.422;2022-12-07T14:50:16;16.42;;;8.30;;
17510;SDS011;8873;48.818;9.422;2022-12-07T14:52:45;20.98;;;8.02;;
17510;SDS011;8873;48.818;9.422;2022-12-07T14:55:33;16.25;;;8.27;;
17510;SDS011;8873;48.818;9.422;2022-12-07T14:58:01;19.48;;;8.77;;
17510;SDS011;8873;48.818;9.422;2022-12-07T15:00:30;26.20;;;12.02;;
17510;SDS011;8873;48.818;9.422;2022-12-07T15:02:58;30.58;;;13.05;;
17510;SDS011;8873;48.818;9.422;2022-12-07T15:05:25;15.65;;;8.48;;
17510;SDS011;8873;48.818;9.422;2022-12-07T15:07:53;21.13;;;9.20;;
17510;SDS011;8873;48.818;9.422;2022-12-07T15:10:22;17.83;;;8.25;;
17510;SDS011;8873;48.818;9.422;2022-12-07T15:12:52;16.58;;;8.50;;
17510;SDS011;8873;48.818;9.422;2022-12-07T15:15:20;23.40;;;9.40;;
17510;SDS011;8873;48.818;9.422;2022-12-07T15:17:49;19.80;;;9.40;;
17510;SDS011;8873;48.818;9.422;2022-12-07T15:20:17;17.52;;;8.98;;
17510;SDS011;8873;48.818;9.422;2022-12-07T15:22:44;17.90;;;9.32;;
17510;SDS011;8873;48.818;9.422;2022-12-07T15:25:12;22.73;;;9.88;;
17510;SDS011;8873;48.818;9.422;2022-12-07T15:27:40;17.43;;;9.30;;
17510;SDS011;8873;48.818;9.422;2022-12-07T15:30:10;24.52;;;9.85;;
17510;SDS011;8873;48.818;9.422;2022-12-07T15:32:38;21.98;;;10.45;;
17510;SDS011;8873;48.818;9.422;2022-12-07T15:35:08;23.38;;;10.25;;
17510;SDS011;8873;48.818;9.422;2022-12-07T15:37:36;25.88;;;12.07;;
17510;SDS011;8873;48.818;9.422;2022-12-07T15:40:05;24.73;;;10.70;;
17510;SDS011;8873;48.818;9.422;2022-12-07T15:42:33;22.52;;;9.82;;
17510;SDS011;8873;48.818;9.422;2022-12-07T15:45:02;22.30;;;9.67;;
17510;SDS011;8873;48.818;9.422;2022-12-07T15:54:41;28.20;;;11.80;;
17510;SDS011;8873;48.818;9.422;2022-12-07T15:57:21;22.20;;;10.52;;
17510;SDS011;8873;48.818;9.422;2022-12-07T15:59:51;23.75;;;10.70;;
17510;SDS011;8873;48.818;9.422;2022-12-07T16:02:18;24.00;;;10.18;;
17510;SDS011;8873;48.818;9.422;2022-12-07T16:04:46;19.92;;;9.27;;
17510;SDS011;8873;48.818;9.422;2022-12-07T16:07:13;20.02;;;9.77;;
17510;SDS011;8873;48.818;9.422;2022-12-07T16:09:43;21.40;;;10.47;;
17510;SDS011;8873;48.818;9.422;2022-12-07T16:12:11;22.48;;;11.13;;
17510;SDS011;8873;48.818;9.422;2022-12-07T16:14:39;22.50;;;9.20;;
17510;SDS011;8873;48.818;9.422;2022-12-07T16:17:07;26.47;;;10.37;;